createdAt,value
2017-08-24T00:01:18.576Z,9.77
2017-08-24T00:03:19.578Z,26.30
2017-08-24T00:05:20.512Z,9.27
2017-08-24T00:07:21.449Z,9.47
2017-08-24T00:09:22.384Z,8.00
2017-08-24T00:11:23.320Z,7.83
2017-08-24T00:13:24.252Z,19.77
2017-08-24T00:15:25.189Z,11.80
2017-08-24T00:17:26.153Z,9.67
2017-08-24T00:19:27.105Z,9.90
2017-08-24T00:21:28.048Z,13.37
2017-08-24T00:23:28.987Z,13.53
2017-08-24T00:25:29.920Z,15.47
2017-08-24T00:27:30.892Z,15.60
2017-08-24T00:29:31.830Z,12.50
2017-08-24T00:31:32.773Z,16.57
2017-08-24T00:33:33.740Z,11.50
2017-08-24T00:35:34.941Z,7.97
2017-08-24T00:37:35.888Z,12.33
2017-08-24T00:39:36.821Z,8.70
2017-08-24T00:41:37.764Z,10.60
2017-08-24T00:43:38.693Z,8.00
2017-08-24T00:45:39.632Z,9.10
2017-08-24T00:47:40.574Z,14.13
2017-08-24T00:49:41.516Z,8.27
2017-08-24T00:51:42.466Z,5.93
2017-08-24T00:53:43.392Z,7.33
2017-08-24T00:55:44.345Z,10.60
2017-08-24T00:57:45.306Z,7.60
2017-08-24T00:59:46.243Z,11.53
2017-08-24T01:01:47.202Z,6.37
2017-08-24T01:03:48.137Z,7.50
2017-08-24T01:05:49.060Z,7.87
2017-08-24T01:07:50.052Z,9.00
2017-08-24T01:09:50.992Z,7.93
2017-08-24T01:11:51.956Z,10.07
2017-08-24T01:13:52.907Z,16.03
2017-08-24T01:15:54.585Z,8.10
2017-08-24T01:17:55.531Z,15.07
2017-08-24T01:19:56.463Z,11.10
2017-08-24T01:21:57.409Z,11.30
2017-08-24T01:23:58.537Z,10.77
2017-08-24T01:25:59.497Z,13.37
2017-08-24T01:28:00.460Z,16.37
2017-08-24T01:30:01.400Z,9.87
2017-08-24T01:32:02.336Z,13.67
2017-08-24T01:34:03.280Z,22.80
2017-08-24T01:36:04.216Z,7.53
2017-08-24T01:38:05.175Z,13.10
2017-08-24T01:40:06.117Z,11.47
2017-08-24T01:42:07.069Z,9.80
2017-08-24T01:44:08.029Z,12.47
2017-08-24T01:46:08.996Z,7.00
2017-08-24T01:48:09.929Z,10.73
2017-08-24T01:50:10.883Z,10.45
2017-08-24T01:52:11.814Z,8.90
2017-08-24T01:54:12.764Z,11.70
2017-08-24T01:56:13.793Z,6.53
2017-08-24T01:58:14.726Z,7.37
2017-08-24T02:00:15.676Z,10.67
2017-08-24T02:02:16.604Z,10.40
2017-08-24T02:04:17.552Z,13.33
2017-08-24T02:06:18.501Z,11.20
2017-08-24T02:08:19.445Z,12.83
2017-08-24T02:10:20.404Z,5.83
2017-08-24T02:12:21.361Z,15.93
2017-08-24T02:14:22.321Z,16.23
2017-08-24T02:16:23.260Z,11.07
2017-08-24T02:18:24.204Z,11.43
2017-08-24T02:20:25.140Z,11.10
2017-08-24T02:22:26.082Z,21.13
2017-08-24T02:24:27.016Z,9.37
2017-08-24T02:26:27.954Z,10.30
2017-08-24T02:28:28.924Z,28.13
2017-08-24T02:30:29.869Z,20.87
2017-08-24T02:32:30.817Z,14.60
2017-08-24T02:34:31.784Z,18.67
2017-08-24T02:36:32.713Z,12.20
2017-08-24T02:38:33.649Z,9.40
2017-08-24T02:40:34.608Z,10.90
2017-08-24T02:42:35.540Z,8.80
2017-08-24T02:44:36.504Z,6.90
2017-08-24T02:46:37.447Z,8.47
2017-08-24T02:48:38.385Z,14.33
2017-08-24T02:50:39.320Z,14.40
2017-08-24T02:52:40.252Z,7.30
2017-08-24T02:54:41.206Z,8.40
2017-08-24T02:56:42.145Z,7.90
2017-08-24T02:58:43.101Z,17.93
2017-08-24T03:00:44.034Z,9.23
2017-08-24T03:02:44.980Z,10.13
2017-08-24T03:04:45.929Z,22.67
2017-08-24T03:06:46.860Z,10.77
2017-08-24T03:08:47.858Z,10.07
2017-08-24T03:10:48.793Z,9.83
2017-08-24T03:12:49.736Z,9.60
2017-08-24T03:14:50.672Z,8.20
2017-08-24T03:16:51.608Z,7.23
2017-08-24T03:18:52.560Z,7.37
2017-08-24T03:20:53.489Z,10.47
2017-08-24T03:22:54.420Z,10.87
2017-08-24T03:24:55.376Z,10.80
2017-08-24T03:26:56.313Z,10.00
2017-08-24T03:28:57.260Z,13.23
2017-08-24T03:30:58.197Z,12.40
2017-08-24T03:32:59.152Z,10.77
2017-08-24T03:35:00.151Z,9.57
2017-08-24T03:37:01.095Z,8.33
2017-08-24T03:39:02.044Z,8.77
2017-08-24T03:41:02.987Z,8.70
2017-08-24T03:43:03.924Z,9.47
2017-08-24T03:45:04.889Z,12.40
2017-08-24T03:47:05.836Z,18.73
2017-08-24T03:49:06.815Z,21.23
2017-08-24T03:51:07.760Z,16.83
2017-08-24T03:53:08.697Z,19.27
2017-08-24T03:55:09.665Z,20.90
2017-08-24T03:57:10.607Z,19.87
2017-08-24T03:59:12.933Z,23.67
2017-08-24T04:01:13.884Z,14.90
2017-08-24T04:03:14.821Z,19.30
2017-08-24T04:05:15.768Z,18.47
2017-08-24T04:07:16.719Z,15.73
2017-08-24T04:09:17.665Z,13.50
2017-08-24T04:11:18.613Z,14.43
2017-08-24T04:13:19.544Z,14.10
2017-08-24T04:15:20.604Z,20.00
2017-08-24T04:17:21.540Z,22.30
2017-08-24T04:19:22.514Z,18.23
2017-08-24T04:21:23.469Z,14.53
2017-08-24T04:23:24.405Z,27.30
2017-08-24T04:25:26.089Z,18.57
2017-08-24T04:27:27.041Z,20.35
2017-08-24T04:29:27.984Z,17.37
2017-08-24T04:31:28.920Z,17.67
2017-08-24T04:33:29.856Z,18.23
2017-08-24T04:35:30.807Z,19.23
2017-08-24T04:37:31.745Z,12.37
2017-08-24T04:39:32.704Z,16.73
2017-08-24T04:41:33.644Z,21.50
2017-08-24T04:43:34.596Z,17.60
2017-08-24T04:45:35.541Z,12.33
2017-08-24T04:47:36.494Z,17.13
2017-08-24T04:49:37.454Z,17.80
2017-08-24T04:51:38.402Z,26.07
2017-08-24T04:53:39.349Z,18.70
2017-08-24T04:55:40.298Z,16.40
2017-08-24T04:57:41.275Z,21.93
2017-08-24T04:59:42.213Z,27.70
2017-08-24T05:01:43.150Z,27.10
2017-08-24T05:03:44.096Z,22.20
2017-08-24T05:05:45.270Z,18.83
2017-08-24T05:07:46.209Z,17.17
2017-08-24T05:09:47.139Z,17.03
2017-08-24T05:11:48.084Z,26.63
2017-08-24T05:13:49.029Z,24.77
2017-08-24T05:15:49.980Z,25.40
2017-08-24T05:17:50.937Z,25.43
2017-08-24T05:19:51.875Z,21.53
2017-08-24T05:21:52.821Z,29.20
2017-08-24T05:23:53.771Z,30.30
2017-08-24T05:25:54.760Z,20.47
2017-08-24T05:27:55.718Z,18.30
2017-08-24T05:29:56.656Z,27.73
2017-08-24T05:31:57.620Z,21.77
2017-08-24T05:33:58.572Z,16.30
2017-08-24T05:35:59.528Z,25.37
2017-08-24T05:38:00.719Z,18.63
2017-08-24T05:40:01.672Z,21.97
2017-08-24T05:42:02.637Z,21.57
2017-08-24T05:44:03.630Z,23.50
2017-08-24T05:46:04.623Z,24.33
2017-08-24T05:48:05.589Z,22.53
2017-08-24T05:50:06.561Z,23.47
2017-08-24T05:52:07.512Z,21.10
2017-08-24T05:54:08.520Z,31.63
2017-08-24T05:56:09.530Z,53.13
2017-08-24T05:58:10.492Z,67.47
2017-08-24T06:00:11.467Z,76.57
2017-08-24T06:02:12.424Z,108.70
2017-08-24T06:04:13.373Z,110.67
2017-08-24T06:06:14.325Z,120.90
2017-08-24T06:08:15.304Z,109.43
2017-08-24T06:10:16.248Z,111.90
2017-08-24T06:12:17.233Z,119.13
2017-08-24T06:14:18.183Z,120.53
2017-08-24T06:16:19.116Z,129.47
2017-08-24T06:18:20.068Z,123.43
2017-08-24T06:20:21.026Z,133.40
2017-08-24T06:22:21.981Z,137.97
2017-08-24T06:24:22.940Z,107.13
2017-08-24T06:26:24.151Z,131.60
2017-08-24T06:28:25.108Z,110.23
2017-08-24T06:30:26.052Z,133.83
2017-08-24T06:32:27.010Z,136.93
2017-08-24T06:34:27.981Z,127.87
2017-08-24T06:36:28.933Z,115.23
2017-08-24T06:38:29.909Z,139.80
2017-08-24T06:40:30.847Z,125.63
2017-08-24T06:42:31.841Z,124.77
2017-08-24T06:44:32.792Z,139.13
2017-08-24T06:46:33.741Z,123.00
2017-08-24T06:48:34.692Z,112.47
2017-08-24T06:50:35.656Z,149.37
2017-08-24T06:52:36.592Z,130.10
2017-08-24T06:54:37.556Z,134.57
2017-08-24T06:56:38.509Z,140.63
2017-08-24T06:58:39.456Z,143.00
2017-08-24T07:00:40.396Z,168.33
2017-08-24T07:02:41.345Z,156.87
2017-08-24T07:04:42.321Z,149.27
2017-08-24T07:06:43.268Z,180.43
2017-08-24T07:08:44.215Z,150.60
2017-08-24T07:10:45.165Z,169.70
2017-08-24T07:12:46.113Z,185.93
2017-08-24T07:14:47.061Z,200.53
2017-08-24T07:16:48.027Z,183.47
2017-08-24T07:18:48.972Z,194.93
2017-08-24T07:20:49.923Z,193.77
2017-08-24T07:22:50.885Z,210.67
2017-08-24T07:24:51.840Z,198.73
2017-08-24T07:26:52.936Z,201.70
2017-08-24T07:28:53.877Z,220.00
2017-08-24T07:30:54.829Z,212.73
2017-08-24T07:32:55.781Z,208.70
2017-08-24T07:34:56.741Z,209.73
2017-08-24T07:36:57.685Z,202.20
2017-08-24T07:38:58.620Z,194.27
2017-08-24T07:40:59.568Z,224.20
2017-08-24T07:43:00.516Z,217.13
2017-08-24T07:45:01.468Z,185.50
2017-08-24T07:47:02.421Z,188.70
2017-08-24T07:49:03.366Z,201.40
2017-08-24T07:51:04.305Z,193.37
2017-08-24T07:53:05.246Z,204.57
2017-08-24T07:55:06.194Z,219.87
2017-08-24T07:57:07.213Z,195.10
2017-08-24T07:59:08.148Z,172.27
2017-08-24T08:01:09.084Z,158.73
2017-08-24T08:03:10.020Z,164.43
2017-08-24T08:05:10.973Z,162.03
2017-08-24T08:07:11.948Z,174.93
2017-08-24T08:09:12.900Z,162.23
2017-08-24T08:11:13.842Z,160.10
2017-08-24T08:13:14.779Z,127.13
2017-08-24T08:15:15.722Z,135.23
2017-08-24T08:17:16.661Z,147.57
2017-08-24T08:19:17.592Z,127.50
2017-08-24T08:21:18.540Z,137.60
2017-08-24T08:23:19.485Z,122.63
2017-08-24T08:25:20.449Z,116.80
2017-08-24T08:27:21.421Z,113.90
2017-08-24T08:29:22.356Z,118.83
2017-08-24T08:31:23.296Z,102.97
2017-08-24T08:33:24.238Z,115.23
2017-08-24T08:35:25.181Z,115.13
2017-08-24T08:37:26.129Z,125.50
2017-08-24T08:39:27.069Z,109.57
2017-08-24T08:41:28.005Z,114.63
2017-08-24T08:43:28.948Z,102.80
2017-08-24T08:45:29.891Z,111.23
2017-08-24T08:47:30.836Z,102.17
2017-08-24T08:49:31.785Z,96.13
2017-08-24T08:51:32.720Z,90.57
2017-08-24T08:53:33.677Z,103.07
2017-08-24T08:55:34.624Z,98.77
2017-08-24T08:57:35.573Z,106.87
2017-08-24T08:59:36.513Z,84.30
2017-08-24T09:01:37.461Z,87.53
2017-08-24T09:03:38.404Z,98.47
2017-08-24T09:05:39.345Z,82.90
2017-08-24T09:07:40.309Z,91.60
2017-08-24T09:09:41.273Z,97.37
2017-08-24T09:11:42.216Z,75.27
2017-08-24T09:13:43.148Z,95.60
2017-08-24T09:15:44.077Z,77.70
2017-08-24T09:17:45.013Z,77.57
2017-08-24T09:19:45.950Z,78.97
2017-08-24T09:21:46.893Z,84.43
2017-08-24T09:23:47.828Z,89.27
2017-08-24T09:25:48.800Z,91.63
2017-08-24T09:27:49.752Z,69.83
2017-08-24T09:29:51.686Z,70.87
2017-08-24T09:31:52.617Z,77.70
2017-08-24T09:33:53.548Z,70.67
2017-08-24T09:35:54.493Z,75.37
2017-08-24T09:37:55.601Z,73.30
2017-08-24T09:39:56.536Z,68.93
2017-08-24T09:41:57.486Z,76.03
2017-08-24T09:43:58.422Z,74.20
2017-08-24T09:45:59.348Z,76.20
2017-08-24T09:48:00.273Z,68.03
2017-08-24T09:50:01.212Z,76.17
2017-08-24T09:52:02.305Z,65.93
2017-08-24T09:54:03.274Z,71.00
2017-08-24T09:56:04.246Z,68.93
2017-08-24T09:58:05.235Z,71.70
2017-08-24T10:00:07.092Z,60.73
2017-08-24T10:02:08.039Z,63.47
2017-08-24T10:04:08.979Z,69.90
2017-08-24T10:06:09.925Z,61.67
2017-08-24T10:08:10.909Z,69.87
2017-08-24T10:10:11.856Z,69.47
2017-08-24T10:12:12.804Z,64.47
2017-08-24T10:14:13.812Z,77.17
2017-08-24T10:16:14.797Z,70.23
2017-08-24T10:18:15.821Z,61.67
2017-08-24T10:20:16.768Z,65.73
2017-08-24T10:22:17.740Z,62.50
2017-08-24T10:24:19.369Z,54.17
2017-08-24T10:26:20.312Z,74.03
2017-08-24T10:28:21.342Z,56.00
2017-08-24T10:30:29.475Z,64.73
2017-08-24T10:32:30.361Z,66.87
2017-08-24T10:34:31.294Z,64.33
2017-08-24T10:36:32.238Z,57.57
2017-08-24T10:38:33.165Z,56.27
2017-08-24T10:40:34.128Z,54.87
2017-08-24T10:42:35.065Z,59.70
2017-08-24T10:44:35.997Z,55.60
2017-08-24T10:46:36.950Z,59.00
2017-08-24T10:48:37.885Z,56.40
2017-08-24T10:50:38.807Z,50.80
2017-08-24T10:52:39.749Z,49.17
2017-08-24T10:54:40.686Z,51.58
2017-08-24T10:56:41.629Z,51.10
2017-08-24T10:58:42.564Z,47.80
2017-08-24T11:00:43.513Z,46.70
2017-08-24T11:02:44.617Z,44.37
2017-08-24T11:04:45.565Z,49.47
2017-08-24T11:06:46.504Z,47.50
2017-08-24T11:08:47.816Z,47.80
2017-08-24T11:10:48.744Z,42.27
2017-08-24T11:12:49.681Z,53.13
2017-08-24T11:14:50.631Z,52.90
2017-08-24T11:16:51.603Z,58.10
2017-08-24T11:18:52.532Z,52.07
2017-08-24T11:20:54.588Z,63.07
2017-08-24T11:22:55.529Z,52.10
2017-08-24T11:24:56.458Z,50.47
2017-08-24T11:26:57.392Z,48.23
2017-08-24T11:28:58.340Z,52.63
2017-08-24T11:30:59.278Z,49.20
2017-08-24T11:33:00.232Z,49.20
2017-08-24T11:35:01.173Z,53.43
2017-08-24T11:37:02.109Z,49.90
2017-08-24T11:39:03.073Z,51.80
2017-08-24T11:41:04.001Z,84.63
2017-08-24T11:43:05.050Z,46.33
2017-08-24T11:45:06.000Z,52.93
2017-08-24T11:47:06.973Z,55.67
2017-08-24T11:49:07.936Z,69.37
2017-08-24T11:51:09.077Z,61.90
2017-08-24T11:53:10.112Z,60.53
2017-08-24T11:55:11.808Z,57.10
2017-08-24T11:57:12.858Z,56.07
2017-08-24T11:59:13.820Z,58.13
2017-08-24T12:01:14.771Z,55.90
2017-08-24T12:03:15.753Z,57.90
2017-08-24T12:05:16.717Z,52.23
2017-08-24T12:07:17.835Z,58.80
2017-08-24T12:09:18.892Z,64.50
2017-08-24T12:11:19.833Z,52.93
2017-08-24T12:13:20.764Z,49.83
2017-08-24T12:15:21.729Z,52.47
2017-08-24T12:17:22.673Z,51.47
2017-08-24T12:19:23.629Z,50.80
2017-08-24T12:21:24.562Z,47.73
2017-08-24T12:23:25.508Z,55.42
2017-08-24T12:25:26.689Z,48.90
2017-08-24T12:27:27.625Z,52.80
2017-08-24T12:29:28.584Z,53.27
2017-08-24T12:31:29.567Z,57.63
2017-08-24T12:33:30.564Z,59.97
2017-08-24T12:35:31.500Z,48.90
2017-08-24T12:37:32.436Z,52.60
2017-08-24T12:39:33.400Z,59.87
2017-08-24T12:41:34.713Z,60.33
2017-08-24T12:43:35.657Z,51.13
2017-08-24T12:45:36.609Z,54.57
2017-08-24T12:47:37.583Z,59.70
2017-08-24T12:49:38.516Z,56.03
2017-08-24T12:51:39.515Z,61.57
2017-08-24T12:53:40.481Z,56.73
2017-08-24T12:55:41.696Z,50.97
2017-08-24T12:57:42.712Z,54.13
2017-08-24T12:59:43.790Z,56.47
2017-08-24T13:01:44.780Z,53.80
2017-08-24T13:03:45.777Z,57.23
2017-08-24T13:05:46.738Z,58.73
2017-08-24T13:07:47.772Z,58.70
2017-08-24T13:09:48.789Z,55.63
2017-08-24T13:11:49.837Z,58.67
2017-08-24T13:13:50.821Z,59.27
2017-08-24T13:15:51.921Z,59.90
2017-08-24T13:17:52.876Z,52.23
2017-08-24T13:19:53.818Z,53.57
2017-08-24T13:21:54.773Z,54.50
2017-08-24T13:23:55.714Z,63.77
2017-08-24T13:25:57.046Z,55.05
2017-08-24T13:27:57.997Z,49.60
2017-08-24T13:29:59.399Z,50.30
2017-08-24T13:32:00.396Z,50.50
2017-08-24T13:34:01.440Z,40.67
2017-08-24T13:36:02.409Z,43.83
2017-08-24T13:38:03.356Z,52.73
2017-08-24T13:40:04.303Z,45.37
2017-08-24T13:42:05.274Z,43.80
2017-08-24T13:44:06.221Z,41.20
2017-08-24T13:46:07.171Z,54.87
2017-08-24T13:48:08.132Z,47.40
2017-08-24T13:50:09.069Z,38.38
2017-08-24T13:52:10.042Z,38.13
2017-08-24T13:54:10.992Z,42.73
2017-08-24T13:56:11.960Z,39.63
2017-08-24T13:58:12.909Z,43.43
2017-08-24T14:00:13.870Z,37.73
2017-08-24T14:02:14.871Z,45.50
2017-08-24T14:04:15.941Z,47.73
2017-08-24T14:06:16.978Z,50.43
2017-08-24T14:08:18.183Z,42.40
2017-08-24T14:10:19.139Z,45.33
2017-08-24T14:12:20.118Z,41.33
2017-08-24T14:14:21.089Z,40.33
2017-08-24T14:16:22.118Z,40.43
2017-08-24T14:18:23.121Z,37.83
2017-08-24T14:20:24.120Z,43.47
2017-08-24T14:22:25.092Z,38.70
2017-08-24T14:24:26.229Z,40.33
2017-08-24T14:26:27.244Z,36.63
2017-08-24T14:28:28.244Z,54.50
2017-08-24T14:30:29.273Z,37.47
2017-08-24T14:32:30.276Z,42.90
2017-08-24T14:34:31.232Z,38.83
2017-08-24T14:36:32.172Z,41.00
2017-08-24T14:38:33.118Z,42.83
2017-08-24T14:40:34.112Z,38.93
2017-08-24T14:42:35.172Z,45.03
2017-08-24T14:44:36.185Z,35.73
2017-08-24T14:46:37.594Z,33.87
2017-08-24T14:48:38.593Z,39.50
2017-08-24T14:50:39.528Z,39.10
2017-08-24T14:52:40.969Z,34.37
2017-08-24T14:54:42.856Z,30.90
2017-08-24T14:56:43.908Z,51.83
2017-08-24T14:58:44.977Z,30.10
2017-08-24T15:00:46.004Z,38.60
2017-08-24T15:02:47.852Z,34.73
2017-08-24T15:04:49.422Z,32.90
2017-08-24T15:06:50.432Z,31.67
2017-08-24T15:08:51.485Z,36.33
2017-08-24T15:10:52.539Z,32.97
2017-08-24T15:12:53.601Z,35.33
2017-08-24T15:14:54.904Z,33.50
2017-08-24T15:16:55.922Z,33.20
2017-08-24T15:18:56.928Z,38.67
2017-08-24T15:20:57.950Z,34.93
2017-08-24T15:23:00.966Z,31.43
2017-08-24T15:25:02.560Z,34.33
2017-08-24T15:27:03.582Z,35.27
2017-08-24T15:29:04.619Z,30.13
2017-08-24T15:31:05.658Z,38.97
2017-08-24T15:33:06.649Z,29.30
2017-08-24T15:35:07.636Z,31.80
2017-08-24T15:37:08.877Z,33.17
2017-08-24T15:39:09.861Z,28.77
2017-08-24T15:41:12.725Z,36.63
2017-08-24T15:43:13.684Z,32.37
2017-08-24T15:45:14.644Z,36.37
2017-08-24T15:47:15.600Z,29.50
2017-08-24T15:49:16.536Z,33.50
2017-08-24T15:51:17.495Z,31.03
2017-08-24T15:53:18.896Z,26.43
2017-08-24T15:55:20.673Z,32.23
2017-08-24T15:57:21.609Z,32.00
2017-08-24T15:59:22.560Z,32.77
2017-08-24T16:01:24.369Z,35.70
2017-08-24T16:03:25.331Z,34.87
2017-08-24T16:05:26.486Z,36.50
2017-08-24T16:07:27.473Z,36.27
2017-08-24T16:09:28.429Z,37.57
2017-08-24T16:11:29.497Z,39.80
2017-08-24T16:13:30.440Z,37.63
2017-08-24T16:15:31.474Z,36.53
2017-08-24T16:17:32.420Z,36.45
2017-08-24T16:19:33.377Z,33.83
2017-08-24T16:21:34.336Z,37.73
2017-08-24T16:23:35.353Z,37.40
2017-08-24T16:25:36.330Z,41.13
2017-08-24T16:27:37.405Z,34.53
2017-08-24T16:29:38.361Z,36.43
2017-08-24T16:31:39.353Z,33.13
2017-08-24T16:33:40.315Z,40.07
2017-08-24T16:35:41.424Z,38.87
2017-08-24T16:37:42.527Z,50.50
2017-08-24T16:39:43.582Z,41.57
2017-08-24T16:41:44.837Z,36.80
2017-08-24T16:43:45.795Z,38.13
2017-08-24T16:45:47.508Z,48.27
2017-08-24T16:47:48.698Z,37.93
2017-08-24T16:49:49.744Z,37.40
2017-08-24T16:51:50.677Z,34.27
2017-08-24T16:53:51.607Z,46.03
2017-08-24T16:55:53.643Z,37.17
2017-08-24T16:57:54.575Z,41.07
2017-08-24T16:59:55.516Z,39.00
2017-08-24T17:01:56.457Z,42.50
2017-08-24T17:03:57.393Z,51.57
2017-08-24T17:05:58.460Z,37.17
2017-08-24T17:07:59.473Z,36.10
2017-08-24T17:10:00.532Z,38.30
2017-08-24T17:12:01.569Z,38.13
2017-08-24T17:14:02.500Z,34.53
2017-08-24T17:16:03.429Z,38.20
2017-08-24T17:18:04.373Z,39.30
2017-08-24T17:20:05.312Z,34.20
2017-08-24T17:22:06.240Z,39.20
2017-08-24T17:24:07.180Z,36.57
2017-08-24T17:26:08.115Z,35.40
2017-08-24T17:28:09.972Z,38.00
2017-08-24T17:30:12.060Z,38.47
2017-08-24T17:32:13.049Z,36.10
2017-08-24T17:34:14.073Z,36.40
2017-08-24T17:36:15.045Z,42.10
2017-08-24T17:38:16.052Z,41.27
2017-08-24T17:40:17.108Z,40.67
2017-08-24T17:42:18.172Z,39.90
2017-08-24T17:44:19.107Z,35.60
2017-08-24T17:46:20.148Z,36.30
2017-08-24T17:48:21.081Z,41.47
2017-08-24T17:50:22.104Z,38.23
2017-08-24T17:52:23.128Z,43.40
2017-08-24T17:54:24.472Z,34.97
2017-08-24T17:56:40.744Z,37.00
2017-08-24T17:58:42.134Z,41.67
2017-08-24T18:00:44.185Z,46.23
2017-08-24T18:02:45.335Z,41.33
2017-08-24T18:04:46.308Z,41.57
2017-08-24T18:06:47.252Z,55.03
2017-08-24T18:08:48.189Z,37.78
2017-08-24T18:10:49.128Z,36.13
2017-08-24T18:12:50.072Z,44.07
2017-08-24T18:14:51.038Z,40.80
2017-08-24T18:16:52.100Z,39.67
2017-08-24T18:18:53.106Z,48.80
2017-08-24T18:20:54.123Z,52.27
2017-08-24T18:22:55.265Z,43.27
2017-08-24T18:24:56.291Z,47.80
2017-08-24T18:26:57.220Z,42.07
2017-08-24T18:28:58.186Z,44.03
2017-08-24T18:30:59.204Z,41.53
2017-08-24T18:33:00.265Z,45.97
2017-08-24T18:35:01.358Z,44.47
2017-08-24T18:37:02.353Z,52.20
2017-08-24T18:39:03.396Z,46.00
2017-08-24T18:41:04.410Z,47.57
2017-08-24T18:43:05.629Z,38.30
2017-08-24T18:45:06.694Z,45.57
2017-08-24T18:47:07.804Z,39.63
2017-08-24T18:49:08.759Z,40.03
2017-08-24T18:51:10.909Z,45.30
2017-08-24T18:53:11.854Z,47.60
2017-08-24T18:55:12.788Z,47.03
2017-08-24T18:57:13.745Z,52.90
2017-08-24T18:59:14.687Z,50.70
2017-08-24T19:01:15.631Z,48.17
2017-08-24T19:03:16.580Z,47.90
2017-08-24T19:05:17.512Z,59.70
2017-08-24T19:07:18.455Z,50.03
2017-08-24T19:09:19.477Z,56.63
2017-08-24T19:11:20.505Z,55.97
2017-08-24T19:13:21.808Z,52.37
2017-08-24T19:15:22.774Z,58.33
2017-08-24T19:17:23.844Z,59.43
2017-08-24T19:19:24.976Z,49.60
2017-08-24T19:21:25.979Z,53.40
2017-08-24T19:23:27.060Z,57.57
2017-08-24T19:25:28.156Z,55.20
2017-08-24T19:27:29.224Z,61.83
2017-08-24T19:29:30.263Z,57.67
2017-08-24T19:31:31.311Z,62.83
2017-08-24T19:33:32.436Z,62.03
2017-08-24T19:35:33.381Z,60.13
2017-08-24T19:37:34.411Z,60.90
2017-08-24T19:39:35.480Z,61.67
2017-08-24T19:41:36.411Z,62.70
2017-08-24T19:43:37.368Z,74.13
2017-08-24T19:45:38.332Z,63.00
2017-08-24T19:47:39.419Z,63.93
2017-08-24T19:49:40.445Z,59.20
2017-08-24T19:51:41.524Z,73.40
2017-08-24T19:53:42.638Z,65.27
2017-08-24T19:55:43.576Z,58.17
2017-08-24T19:57:44.536Z,60.90
2017-08-24T19:59:45.496Z,63.63
2017-08-24T20:01:46.432Z,59.50
2017-08-24T20:03:47.453Z,61.93
2017-08-24T20:05:48.450Z,70.20
2017-08-24T20:07:49.492Z,57.77
2017-08-24T20:09:50.524Z,60.57
2017-08-24T20:11:51.543Z,63.83
2017-08-24T20:13:52.481Z,62.07
2017-08-24T20:15:53.417Z,61.70
2017-08-24T20:17:54.344Z,60.13
2017-08-24T20:19:55.305Z,67.50
2017-08-24T20:21:56.240Z,69.53
2017-08-24T20:23:57.169Z,59.70
2017-08-24T20:25:58.197Z,60.00
2017-08-24T20:27:59.144Z,59.83
2017-08-24T20:30:01.800Z,80.40
2017-08-24T20:32:02.826Z,57.93
2017-08-24T20:34:03.755Z,64.93
2017-08-24T20:36:04.707Z,61.63
2017-08-24T20:38:05.650Z,63.13
2017-08-24T20:40:06.711Z,69.27
2017-08-24T20:42:07.645Z,62.17
2017-08-24T20:44:08.600Z,58.80
2017-08-24T20:46:09.553Z,51.97
2017-08-24T20:48:10.583Z,59.87
2017-08-24T20:50:11.628Z,67.00
2017-08-24T20:52:12.577Z,57.23
2017-08-24T20:54:13.528Z,54.70
2017-08-24T20:56:14.484Z,56.87
2017-08-24T20:58:22.304Z,59.50
2017-08-24T21:00:23.249Z,60.47
2017-08-24T21:02:24.183Z,57.87
2017-08-24T21:04:25.112Z,66.20
2017-08-24T21:06:26.056Z,55.30
2017-08-24T21:08:26.980Z,60.03
2017-08-24T21:10:27.909Z,56.63
2017-08-24T21:12:28.853Z,53.13
2017-08-24T21:14:29.776Z,66.10
2017-08-24T21:16:30.708Z,59.77
2017-08-24T21:18:31.636Z,64.97
2017-08-24T21:20:32.576Z,51.20
2017-08-24T21:22:33.532Z,55.90
2017-08-24T21:24:34.465Z,59.93
2017-08-24T21:26:35.405Z,55.90
2017-08-24T21:28:36.337Z,52.83
2017-08-24T21:30:37.268Z,55.30
2017-08-24T21:32:38.200Z,59.47
2017-08-24T21:34:39.129Z,66.23
2017-08-24T21:36:40.056Z,63.77
2017-08-24T21:38:41.020Z,63.20
2017-08-24T21:40:41.944Z,51.93
2017-08-24T21:42:42.896Z,57.53
2017-08-24T21:44:43.832Z,59.23
2017-08-24T21:46:44.765Z,56.60
2017-08-24T21:48:45.708Z,58.27
2017-08-24T21:50:53.564Z,49.10
2017-08-24T21:52:54.504Z,56.00
2017-08-24T21:54:55.437Z,64.77
2017-08-24T21:56:56.369Z,62.23
2017-08-24T21:58:57.304Z,56.23
2017-08-24T22:00:58.230Z,56.10
2017-08-24T22:02:59.179Z,56.45
2017-08-24T22:05:00.116Z,54.60
2017-08-24T22:07:01.049Z,58.00
2017-08-24T22:09:02.001Z,57.97
2017-08-24T22:11:02.952Z,54.77
2017-08-24T22:13:03.871Z,57.50
2017-08-24T22:15:04.813Z,50.87
2017-08-24T22:17:05.764Z,56.30
2017-08-24T22:19:06.745Z,61.87
2017-08-24T22:21:07.684Z,56.70
2017-08-24T22:23:08.612Z,53.40
2017-08-24T22:25:09.548Z,65.97
2017-08-24T22:27:10.584Z,72.87
2017-08-24T22:29:11.512Z,58.57
2017-08-24T22:31:12.461Z,61.77
2017-08-24T22:33:20.391Z,48.13
2017-08-24T22:35:21.328Z,46.57
2017-08-24T22:37:22.249Z,53.87
2017-08-24T22:39:23.184Z,50.17
2017-08-24T22:41:24.128Z,52.30
2017-08-24T22:43:25.057Z,51.83
2017-08-24T22:45:26.008Z,59.17
2017-08-24T22:47:26.944Z,53.00
2017-08-24T22:49:27.869Z,48.90
2017-08-24T22:51:28.808Z,46.90
2017-08-24T22:53:35.737Z,48.53
2017-08-24T22:55:42.736Z,53.57
2017-08-24T22:57:49.792Z,53.43
2017-08-24T22:59:56.932Z,49.03
2017-08-24T23:02:03.944Z,58.67
2017-08-24T23:04:04.880Z,54.30
2017-08-24T23:06:05.953Z,57.20
2017-08-24T23:08:06.879Z,58.53
2017-08-24T23:10:07.817Z,63.87
2017-08-24T23:12:08.800Z,57.80
2017-08-24T23:14:09.736Z,53.93
2017-08-24T23:16:10.663Z,47.07
2017-08-24T23:18:11.607Z,55.20
2017-08-24T23:20:12.548Z,53.60
2017-08-24T23:22:13.484Z,52.77
2017-08-24T23:24:14.416Z,49.30
2017-08-24T23:26:15.356Z,57.67
2017-08-24T23:28:16.312Z,51.73
2017-08-24T23:30:17.254Z,47.88
2017-08-24T23:32:18.213Z,49.10
2017-08-24T23:34:19.148Z,41.37
2017-08-24T23:36:20.080Z,47.13
2017-08-24T23:38:21.108Z,48.53
2017-08-24T23:40:22.041Z,39.90
2017-08-24T23:42:22.972Z,44.13
2017-08-24T23:44:23.921Z,42.13
2017-08-24T23:46:24.863Z,44.80
2017-08-24T23:48:25.801Z,42.37
2017-08-24T23:50:26.736Z,44.97
2017-08-24T23:52:27.672Z,48.17
2017-08-24T23:54:28.602Z,46.92
2017-08-24T23:56:29.536Z,41.03
2017-08-24T23:58:30.481Z,53.50
